Time;durP1;ratioP1;P1;durP2;ratioP2;P2;SDS_P1;SDS_P2;PMS_P1;PMS_P2;Temp;Humidity;BMP_temperature;BMP_pressure;BME280_temperature;BME280_humidity;BME280_pressure;Samples;Min_cycle;Max_cycle;Signal;HPM_P1;HPM_P2
2021/06/24 00:01:01;;;;;;;6.32;3.63;;;16.20;79.10;;;;;;4955917;28;20609;-85
2021/06/24 00:03:30;;;;;;;9.07;3.55;;;16.20;78.90;;;;;;4972900;28;20155;-85
2021/06/24 00:05:56;;;;;;;7.53;3.72;;;16.20;79.00;;;;;;4955546;28;20183;-85
2021/06/24 00:08:22;;;;;;;7.95;3.33;;;16.20;78.60;;;;;;4955482;28;20202;-85
2021/06/24 00:10:50;;;;;;;9.60;3.78;;;16.30;78.50;;;;;;4955422;28;20594;-85
2021/06/24 00:13:16;;;;;;;8.18;4.20;;;16.30;78.40;;;;;;4972573;28;20206;-85
2021/06/24 00:15:42;;;;;;;9.00;4.10;;;16.30;78.40;;;;;;4955416;28;20171;-85
2021/06/24 00:18:08;;;;;;;8.07;3.75;;;16.30;78.50;;;;;;4955444;28;20669;-85
2021/06/24 00:20:36;;;;;;;9.43;4.10;;;16.30;78.30;;;;;;4972573;28;20175;-85
2021/06/24 00:23:02;;;;;;;10.23;4.35;;;16.30;78.40;;;;;;4972638;28;20569;-85
2021/06/24 00:25:27;;;;;;;14.18;4.00;;;16.30;78.30;;;;;;4955346;28;20182;-85
2021/06/24 00:27:53;;;;;;;9.90;4.38;;;16.30;78.80;;;;;;4955218;28;20186;-85
2021/06/24 00:30:19;;;;;;;12.05;4.32;;;16.20;79.10;;;;;;4972525;28;20187;-85
2021/06/24 00:32:45;;;;;;;9.20;4.03;;;16.10;79.40;;;;;;4954931;28;20327;-84
2021/06/24 00:35:12;;;;;;;9.68;3.63;;;16.00;79.60;;;;;;4972518;28;20182;-85
2021/06/24 00:37:40;;;;;;;7.55;4.45;;;16.10;79.50;;;;;;4972413;28;20163;-85
2021/06/24 00:40:08;;;;;;;11.45;3.70;;;16.20;79.40;;;;;;4954961;28;20229;-85
2021/06/24 00:42:35;;;;;;;9.90;3.80;;;16.20;79.20;;;;;;4954998;28;20198;-85
2021/06/24 00:45:02;;;;;;;10.10;3.50;;;16.20;79.20;;;;;;4954903;28;20659;-85
2021/06/24 00:47:27;;;;;;;11.55;4.32;;;16.20;79.00;;;;;;4954909;28;20194;-85
2021/06/24 00:49:53;;;;;;;9.50;3.58;;;16.20;78.70;;;;;;4972241;28;20175;-85
2021/06/24 00:52:19;;;;;;;7.85;3.80;;;16.20;78.60;;;;;;4971992;28;20214;-85
2021/06/24 00:54:45;;;;;;;9.65;3.58;;;16.20;78.70;;;;;;4954847;28;20524;-85
2021/06/24 00:57:11;;;;;;;6.85;3.28;;;16.10;78.50;;;;;;4972110;28;20228;-85
2021/06/24 00:59:37;;;;;;;7.88;3.45;;;16.10;78.70;;;;;;4955564;28;20175;-85
2021/06/24 01:02:05;;;;;;;7.22;3.97;;;16.10;78.60;;;;;;4954662;28;20251;-85
2021/06/24 01:04:31;;;;;;;5.82;3.47;;;16.10;78.60;;;;;;4954681;28;20212;-85
2021/06/24 01:06:57;;;;;;;9.52;3.70;;;16.10;78.40;;;;;;4971633;28;20185;-85
2021/06/24 01:09:22;;;;;;;15.13;4.22;;;16.00;78.50;;;;;;4971926;28;20551;-85
2021/06/24 01:11:49;;;;;;;8.40;4.20;;;16.00;78.80;;;;;;4971696;28;20203;-85
2021/06/24 01:14:15;;;;;;;9.63;3.90;;;15.90;79.10;;;;;;4972438;28;20171;-85
2021/06/24 01:16:41;;;;;;;9.32;3.90;;;15.80;79.60;;;;;;4955409;28;20178;-85
2021/06/24 01:19:07;;;;;;;7.50;3.83;;;15.70;79.80;;;;;;4954554;28;20182;-85
2021/06/24 01:21:33;;;;;;;7.40;3.78;;;15.80;79.70;;;;;;4954485;28;20205;-85
2021/06/24 01:24:00;;;;;;;6.30;3.90;;;15.80;79.80;;;;;;4971749;28;20178;-85
2021/06/24 01:26:26;;;;;;;8.85;4.40;;;15.80;79.70;;;;;;4954398;28;20194;-85
2021/06/24 01:28:52;;;;;;;10.15;3.47;;;15.90;79.50;;;;;;4954466;28;20669;-85
2021/06/24 01:31:20;;;;;;;11.38;3.63;;;15.90;79.70;;;;;;4954458;28;20230;-85
2021/06/24 01:33:46;;;;;;;8.55;4.35;;;15.90;79.80;;;;;;4954438;28;20683;-85
2021/06/24 01:36:13;;;;;;;8.30;3.88;;;15.80;79.90;;;;;;4971587;28;20175;-85
2021/06/24 01:38:40;;;;;;;8.07;4.13;;;15.70;80.50;;;;;;4954426;28;20178;-85
2021/06/24 01:41:05;;;;;;;7.25;3.30;;;15.70;80.70;;;;;;4954215;28;20198;-85
2021/06/24 01:43:31;;;;;;;9.05;3.67;;;15.70;81.00;;;;;;4954197;28;20186;-85
2021/06/24 01:45:58;;;;;;;9.77;3.85;;;15.60;81.30;;;;;;4954248;28;20186;-85
2021/06/24 01:48:26;;;;;;;11.38;4.03;;;15.60;81.70;;;;;;4971583;28;20639;-85
2021/06/24 01:50:57;;;;;;;7.53;3.33;;;15.50;81.90;;;;;;4971292;28;20179;-85
2021/06/24 01:53:23;;;;;;;9.70;3.65;;;15.50;82.10;;;;;;4957049;28;20657;-85
2021/06/24 01:55:49;;;;;;;7.88;3.65;;;15.50;81.90;;;;;;4957660;28;20232;-85
2021/06/24 01:58:22;;;;;;;4.55;3.33;;;15.50;81.90;;;;;;4958633;28;20182;-85
2021/06/24 02:00:48;;;;;;;7.40;3.63;;;15.50;81.80;;;;;;4974696;28;20571;-85
2021/06/24 02:03:15;;;;;;;6.28;3.97;;;15.50;81.50;;;;;;4974979;28;20175;-86
2021/06/24 02:05:41;;;;;;;9.90;3.67;;;15.50;81.60;;;;;;4974583;28;20187;-87
2021/06/24 02:08:19;;;;;;;11.48;3.72;;;15.50;81.40;;;;;;4957397;28;20178;-87
2021/06/24 02:10:45;;;;;;;8.55;4.10;;;15.60;81.20;;;;;;4957315;28;20175;-87
2021/06/24 02:13:11;;;;;;;8.27;4.00;;;15.40;81.90;;;;;;4957214;28;20207;-87
2021/06/24 02:15:37;;;;;;;9.13;4.00;;;15.40;82.10;;;;;;4957223;28;20225;-87
2021/06/24 02:18:03;;;;;;;9.38;4.10;;;15.40;81.80;;;;;;4974464;28;20661;-87
2021/06/24 02:20:29;;;;;;;8.95;3.38;;;15.50;81.70;;;;;;4957170;28;20179;-87
2021/06/24 02:22:54;;;;;;;7.63;3.80;;;15.50;81.60;;;;;;4974322;28;20207;-86
2021/06/24 02:25:20;;;;;;;6.53;4.18;;;15.60;81.40;;;;;;4974346;28;20183;-87
2021/06/24 02:27:45;;;;;;;5.57;3.08;;;15.60;81.30;;;;;;4957046;28;20204;-87
2021/06/24 02:30:13;;;;;;;6.35;3.35;;;15.60;81.10;;;;;;4957066;28;20513;-87
2021/06/24 02:32:39;;;;;;;9.38;3.47;;;15.70;80.90;;;;;;4956861;28;20304;-87
2021/06/24 02:35:08;;;;;;;7.10;3.70;;;15.70;80.70;;;;;;4974238;28;20665;-87
2021/06/24 02:37:34;;;;;;;6.85;3.70;;;15.70;80.50;;;;;;4974223;28;20202;-87
2021/06/24 02:40:00;;;;;;;6.45;3.20;;;15.70;80.30;;;;;;4974363;28;20202;-87
2021/06/24 02:42:26;;;;;;;8.45;3.53;;;15.70;80.10;;;;;;4956771;28;20201;-87
2021/06/24 02:44:51;;;;;;;6.35;3.40;;;15.70;80.00;;;;;;4956815;28;20179;-87
2021/06/24 02:47:17;;;;;;;5.28;3.28;;;15.70;80.00;;;;;;4956813;28;20187;-87
2021/06/24 02:49:43;;;;;;;7.00;3.47;;;15.70;80.10;;;;;;4957795;28;20532;-87
2021/06/24 02:52:09;;;;;;;8.77;3.40;;;15.70;80.00;;;;;;4973792;28;20206;-87
2021/06/24 02:54:34;;;;;;;7.28;3.95;;;15.70;80.10;;;;;;4973947;28;20229;-87
2021/06/24 02:57:00;;;;;;;6.13;2.75;;;15.70;80.00;;;;;;4973777;28;20257;-87
2021/06/24 02:59:27;;;;;;;8.27;3.17;;;15.70;79.60;;;;;;4956528;28;20587;-87
2021/06/24 03:01:52;;;;;;;9.20;3.30;;;15.70;79.50;;;;;;4973760;28;20206;-87
2021/06/24 03:04:21;;;;;;;6.18;3.65;;;15.70;79.50;;;;;;4955192;28;20552;-87
2021/06/24 03:06:50;;;;;;;5.50;2.78;;;15.60;79.30;;;;;;4973745;28;20547;-87
2021/06/24 03:09:16;;;;;;;6.55;2.92;;;15.70;79.30;;;;;;4956867;28;20187;-87
2021/06/24 03:11:42;;;;;;;6.85;2.88;;;15.60;79.50;;;;;;4973504;28;20207;-87
2021/06/24 03:14:08;;;;;;;9.25;3.00;;;15.60;79.00;;;;;;4956505;28;20549;-87
2021/06/24 03:16:33;;;;;;;8.52;3.67;;;15.60;79.10;;;;;;4973577;28;20171;-87
2021/06/24 03:18:59;;;;;;;8.57;3.35;;;15.50;79.10;;;;;;4956235;28;20189;-87
2021/06/24 03:21:25;;;;;;;10.77;3.33;;;15.50;79.20;;;;;;4956225;28;20289;-87
2021/06/24 03:23:50;;;;;;;6.07;2.72;;;15.40;79.50;;;;;;4973496;28;20175;-87
2021/06/24 03:26:17;;;;;;;10.25;3.55;;;15.40;79.70;;;;;;4956516;28;20210;-87
2021/06/24 03:28:43;;;;;;;8.05;3.45;;;15.40;79.50;;;;;;4956192;28;20179;-87
2021/06/24 03:33:44;;;;;;;6.07;2.97;;;15.30;80.30;;;;;;5055278;23;20231;-87
2021/06/24 03:36:10;;;;;;;4.77;3.27;;;15.20;80.80;;;;;;5037203;28;20234;-87
2021/06/24 03:38:36;;;;;;;10.47;3.83;;;15.20;81.30;;;;;;5037243;28;20172;-86
2021/06/24 03:41:01;;;;;;;9.20;4.10;;;15.20;81.50;;;;;;5055092;28;20255;-87
2021/06/24 03:43:27;;;;;;;9.67;4.30;;;15.10;81.90;;;;;;5037177;28;20188;-87
2021/06/24 03:45:53;;;;;;;8.17;4.00;;;15.10;82.10;;;;;;5053798;28;20183;-87
2021/06/24 03:48:19;;;;;;;11.67;4.67;;;15.00;82.50;;;;;;5054911;28;20299;-87
2021/06/24 03:50:44;;;;;;;12.33;4.50;;;15.10;82.70;;;;;;5036970;28;20210;-87
2021/06/24 03:53:10;;;;;;;6.87;4.13;;;15.10;82.60;;;;;;5036787;28;20211;-87
2021/06/24 03:55:43;;;;;;;8.43;4.70;;;15.10;82.70;;;;;;5036978;28;20654;-87
2021/06/24 03:58:10;;;;;;;13.67;4.10;;;15.20;82.80;;;;;;5055269;28;20153;-87
2021/06/24 04:00:41;;;;;;;8.17;4.00;;;15.20;82.80;;;;;;5053715;28;20172;-87
2021/06/24 04:03:07;;;;;;;9.13;4.00;;;15.20;82.80;;;;;;5036868;28;20286;-87
2021/06/24 04:05:33;;;;;;;7.73;3.93;;;15.20;82.50;;;;;;5036835;28;20218;-87
2021/06/24 04:07:59;;;;;;;8.95;4.47;;;15.30;82.20;;;;;;5054681;28;20176;-87
2021/06/24 04:10:26;;;;;;;12.57;4.80;;;15.30;82.00;;;;;;5036747;28;20172;-87
2021/06/24 04:12:52;;;;;;;11.23;6.13;;;15.40;82.00;;;;;;5036651;28;20651;-87
2021/06/24 04:15:18;;;;;;;12.23;5.38;;;15.30;82.10;;;;;;5036217;28;20208;-87
2021/06/24 04:17:43;;;;;;;10.20;4.70;;;15.30;82.80;;;;;;5054345;28;20163;-86
2021/06/24 04:20:09;;;;;;;14.00;6.63;;;15.20;83.30;;;;;;5054467;28;20176;-86
2021/06/24 04:22:35;;;;;;;11.60;5.60;;;15.10;83.90;;;;;;5054113;28;20198;-88
2021/06/24 04:25:00;;;;;;;9.43;5.33;;;14.90;84.80;;;;;;5055052;28;20195;-88
2021/06/24 04:27:26;;;;;;;12.13;5.63;;;14.80;85.70;;;;;;5036857;28;20180;-87
2021/06/24 04:29:52;;;;;;;11.53;5.97;;;14.80;86.10;;;;;;5054510;28;20237;-88
2021/06/24 04:32:17;;;;;;;8.40;5.97;;;14.70;86.30;;;;;;5054314;28;20218;-87
2021/06/24 04:34:43;;;;;;;11.80;6.60;;;14.70;86.30;;;;;;5036663;28;20187;-87
2021/06/24 04:37:08;;;;;;;10.63;6.27;;;14.70;86.60;;;;;;5054514;28;20183;-87
2021/06/24 04:39:34;;;;;;;15.17;6.57;;;14.70;87.00;;;;;;5054655;28;20628;-87
2021/06/24 04:42:00;;;;;;;11.93;6.10;;;14.70;86.60;;;;;;5036435;28;20200;-87
2021/06/24 04:44:25;;;;;;;11.53;6.83;;;14.70;86.60;;;;;;5054241;28;20648;-87
2021/06/24 04:46:51;;;;;;;11.50;6.20;;;14.70;86.90;;;;;;5054639;28;20195;-87
2021/06/24 04:49:17;;;;;;;14.93;6.63;;;14.80;86.70;;;;;;5054264;28;20663;-87
2021/06/24 04:51:43;;;;;;;12.00;7.20;;;14.80;86.80;;;;;;5052667;28;20204;-87
2021/06/24 04:54:10;;;;;;;14.93;8.07;;;15.00;86.70;;;;;;5054445;28;20200;-87
2021/06/24 04:56:35;;;;;;;15.80;7.90;;;15.10;86.50;;;;;;5054153;28;20226;-88
2021/06/24 04:59:01;;;;;;;19.17;7.70;;;15.10;85.80;;;;;;5054163;28;20207;-87
2021/06/24 05:01:27;;;;;;;15.83;7.17;;;15.20;85.80;;;;;;5036052;28;20246;-87
2021/06/24 05:03:52;;;;;;;10.30;7.50;;;15.30;85.50;;;;;;5053963;28;20640;-87
2021/06/24 05:06:18;;;;;;;22.87;7.63;;;15.30;85.40;;;;;;5054276;28;20168;-87
2021/06/24 05:08:44;;;;;;;14.40;6.67;;;15.50;85.10;;;;;;5036209;28;20172;-87
2021/06/24 05:11:09;;;;;;;12.93;6.60;;;15.50;84.50;;;;;;5035826;28;20184;-87
2021/06/24 05:13:35;;;;;;;11.07;6.78;;;15.50;83.90;;;;;;5053983;28;20172;-87
2021/06/24 05:16:01;;;;;;;11.27;6.47;;;15.50;83.50;;;;;;5036111;28;20184;-88
2021/06/24 05:18:27;;;;;;;12.77;7.23;;;15.30;84.00;;;;;;5053984;28;20164;-87
2021/06/24 05:20:53;;;;;;;10.77;7.80;;;15.30;84.00;;;;;;5035822;28;20536;-87
2021/06/24 05:23:18;;;;;;;14.77;7.50;;;15.20;84.60;;;;;;5053440;28;20195;-87
2021/06/24 05:25:46;;;;;;;12.70;7.47;;;15.30;84.90;;;;;;5035478;28;20184;-87
2021/06/24 05:28:13;;;;;;;11.33;7.17;;;15.30;84.80;;;;;;5052914;28;20191;-87
2021/06/24 05:30:38;;;;;;;12.37;7.57;;;15.50;84.90;;;;;;5053542;28;20202;-87
2021/06/24 05:33:04;;;;;;;10.27;7.10;;;15.60;84.60;;;;;;5053116;28;20207;-87
2021/06/24 05:35:30;;;;;;;14.73;7.53;;;15.80;84.10;;;;;;5053401;28;20172;-87
2021/06/24 05:37:56;;;;;;;13.70;7.50;;;15.80;83.50;;;;;;5053440;28;20254;-87
2021/06/24 05:40:22;;;;;;;15.77;6.97;;;16.00;83.30;;;;;;5035484;28;20546;-87
2021/06/24 05:42:49;;;;;;;8.75;6.30;;;16.10;82.70;;;;;;5035598;28;20199;-87
2021/06/24 05:45:14;;;;;;;8.13;5.70;;;16.30;82.00;;;;;;5035438;28;20636;-87
2021/06/24 05:47:40;;;;;;;15.25;6.07;;;16.50;81.80;;;;;;5053215;28;20176;-87
2021/06/24 05:50:06;;;;;;;10.45;5.68;;;16.60;80.60;;;;;;5053782;28;20176;-87
2021/06/24 05:52:32;;;;;;;8.55;5.20;;;16.70;79.40;;;;;;5053459;28;20739;-87
2021/06/24 05:54:58;;;;;;;10.07;6.20;;;16.80;79.50;;;;;;5053413;28;20200;-87
2021/06/24 05:57:26;;;;;;;10.02;5.38;;;16.70;79.10;;;;;;5035460;28;20198;-87
2021/06/24 05:59:52;;;;;;;6.55;5.07;;;16.50;79.30;;;;;;5053637;28;20190;-87
2021/06/24 06:02:17;;;;;;;8.18;4.88;;;16.70;79.40;;;;;;5052182;28;20287;-87
2021/06/24 06:04:43;;;;;;;11.30;6.18;;;16.90;77.90;;;;;;5051749;28;20180;-87
2021/06/24 06:07:08;;;;;;;12.38;6.63;;;16.90;77.30;;;;;;5051701;28;20183;-86
2021/06/24 06:09:35;;;;;;;14.98;6.32;;;17.00;77.60;;;;;;5051644;28;20535;-87
2021/06/24 06:12:03;;;;;;;10.60;7.22;;;17.00;77.60;;;;;;5052753;28;20196;-86
2021/06/24 06:14:28;;;;;;;9.23;6.28;;;17.20;77.20;;;;;;5051662;28;20601;-87
2021/06/24 06:16:54;;;;;;;10.18;8.35;;;17.20;76.40;;;;;;5035030;28;20172;-87
2021/06/24 06:19:19;;;;;;;17.67;9.77;;;17.10;75.40;;;;;;5052794;28;20188;-86
2021/06/24 06:21:45;;;;;;;17.60;8.77;;;16.90;75.60;;;;;;5034839;28;20250;-87
2021/06/24 06:24:11;;;;;;;13.05;8.63;;;17.10;75.60;;;;;;5052759;28;20230;-87
2021/06/24 06:26:37;;;;;;;13.32;8.10;;;17.20;74.80;;;;;;5051409;28;20177;-86
2021/06/24 06:29:03;;;;;;;11.90;8.13;;;17.40;73.70;;;;;;5034877;28;20187;-86
2021/06/24 06:31:31;;;;;;;11.10;8.75;;;17.50;73.30;;;;;;5052586;28;20195;-86
2021/06/24 06:33:56;;;;;;;13.40;8.05;;;17.50;74.00;;;;;;5052872;28;20164;-86
2021/06/24 06:36:22;;;;;;;19.67;8.55;;;17.50;72.70;;;;;;5051414;28;20168;-86
2021/06/24 06:38:48;;;;;;;10.32;7.20;;;17.60;73.00;;;;;;5037020;28;20199;-86
2021/06/24 06:41:13;;;;;;;15.45;7.72;;;17.70;72.60;;;;;;5056387;28;20604;-86
2021/06/24 06:43:39;;;;;;;11.05;7.05;;;17.70;73.00;;;;;;5056402;28;20168;-86
2021/06/24 06:46:05;;;;;;;12.32;7.82;;;17.80;73.20;;;;;;5038327;28;20636;-86
2021/06/24 06:48:31;;;;;;;7.75;5.90;;;17.60;72.30;;;;;;5038554;28;20180;-86
2021/06/24 06:50:56;;;;;;;8.60;6.18;;;17.50;70.30;;;;;;5057914;28;20168;-86
2021/06/24 06:53:23;;;;;;;10.88;7.28;;;17.40;71.20;;;;;;5055788;28;20235;-86
2021/06/24 06:55:49;;;;;;;12.27;7.28;;;17.70;71.90;;;;;;5039411;28;20179;-86
2021/06/24 06:58:16;;;;;;;7.80;6.15;;;17.80;71.40;;;;;;5057402;28;20199;-86
2021/06/24 07:00:41;;;;;;;13.60;7.25;;;17.80;70.80;;;;;;5056012;28;20172;-86
2021/06/24 07:03:07;;;;;;;9.10;6.75;;;17.80;71.20;;;;;;5055984;28;20237;-87
2021/06/24 07:05:33;;;;;;;11.57;6.43;;;17.60;72.50;;;;;;5038218;28;20171;-86
2021/06/24 07:07:59;;;;;;;10.80;5.72;;;17.80;72.30;;;;;;5056021;28;20229;-87
2021/06/24 07:10:25;;;;;;;10.63;6.57;;;18.00;71.00;;;;;;5054289;28;20176;-86
2021/06/24 07:12:51;;;;;;;11.82;5.95;;;18.20;70.30;;;;;;5037656;28;20631;-87
2021/06/24 07:15:17;;;;;;;12.55;6.10;;;18.30;71.70;;;;;;5055569;28;20168;-86
2021/06/24 07:17:43;;;;;;;9.32;5.82;;;18.40;70.20;;;;;;5055369;28;20165;-86
2021/06/24 07:20:09;;;;;;;9.13;5.88;;;18.50;69.60;;;;;;5054130;28;20663;-86
2021/06/24 07:22:35;;;;;;;6.88;4.78;;;18.50;69.00;;;;;;5055314;28;20223;-86
2021/06/24 07:25:01;;;;;;;6.53;3.50;;;18.30;68.80;;;;;;5055343;28;20222;-87
2021/06/24 07:27:27;;;;;;;5.65;3.30;;;18.20;68.00;;;;;;5054261;28;20180;-87
2021/06/24 07:29:52;;;;;;;6.57;3.00;;;18.20;67.80;;;;;;5037543;28;20172;-86
2021/06/24 07:32:19;;;;;;;7.63;2.92;;;18.00;68.20;;;;;;5037495;28;20222;-86
2021/06/24 07:34:45;;;;;;;3.50;2.85;;;17.90;67.00;;;;;;5055509;28;20592;-86
2021/06/24 07:37:10;;;;;;;6.45;3.10;;;17.70;66.30;;;;;;5037338;28;20176;-86
2021/06/24 07:39:36;;;;;;;8.40;3.65;;;17.50;68.30;;;;;;5055072;28;20171;-87
2021/06/24 07:42:02;;;;;;;6.05;3.22;;;17.40;68.90;;;;;;5037167;28;20226;-86
2021/06/24 07:44:28;;;;;;;8.20;3.20;;;17.40;67.80;;;;;;5055512;28;20196;-87
2021/06/24 07:46:53;;;;;;;9.55;3.60;;;17.50;68.60;;;;;;5055148;28;20542;-86
2021/06/24 07:49:19;;;;;;;5.50;3.03;;;17.70;66.20;;;;;;5053013;28;20698;-86
2021/06/24 07:51:45;;;;;;;4.68;2.72;;;18.00;67.40;;;;;;5053448;28;20242;-86
2021/06/24 07:54:10;;;;;;;6.15;2.88;;;18.30;67.10;;;;;;5054795;28;20260;-86
2021/06/24 07:56:36;;;;;;;4.50;3.25;;;18.20;64.40;;;;;;5053965;28;20172;-86
2021/06/24 07:59:01;;;;;;;8.23;3.53;;;18.10;66.00;;;;;;5054670;28;20255;-86
2021/06/24 08:01:27;;;;;;;6.78;3.05;;;18.30;65.60;;;;;;5053330;28;20226;-87
2021/06/24 08:03:54;;;;;;;6.43;3.40;;;18.40;65.40;;;;;;5054538;28;20190;-86
2021/06/24 08:06:20;;;;;;;5.93;3.03;;;18.00;63.00;;;;;;5036656;28;20644;-87
2021/06/24 08:08:45;;;;;;;7.22;3.30;;;17.90;64.30;;;;;;5054520;28;20233;-86
2021/06/24 08:11:11;;;;;;;6.30;3.72;;;18.10;63.90;;;;;;5036453;28;20172;-86
2021/06/24 08:13:37;;;;;;;10.07;5.55;;;18.40;64.90;;;;;;5036664;28;20294;-86
2021/06/24 08:16:03;;;;;;;6.20;3.75;;;18.60;63.00;;;;;;5053268;28;20184;-86
2021/06/24 08:18:29;;;;;;;5.80;3.50;;;18.50;62.00;;;;;;5054571;28;20160;-87
2021/06/24 08:20:55;;;;;;;6.50;3.42;;;18.70;63.10;;;;;;5053075;28;20176;-86
2021/06/24 08:23:21;;;;;;;7.80;3.40;;;18.60;64.10;;;;;;5037163;28;20199;-86
2021/06/24 08:25:47;;;;;;;6.47;3.25;;;18.70;63.00;;;;;;5054478;28;20180;-86
2021/06/24 08:28:13;;;;;;;7.03;3.35;;;18.30;62.70;;;;;;5054287;28;20187;-87
2021/06/24 08:30:44;;;;;;;7.15;3.70;;;18.20;64.40;;;;;;5053147;28;20176;-86
2021/06/24 08:33:15;;;;;;;8.38;3.65;;;18.50;64.10;;;;;;5035945;28;20285;-86
2021/06/24 08:35:41;;;;;;;5.60;3.20;;;18.70;64.40;;;;;;5052700;28;20217;-86
2021/06/24 08:38:07;;;;;;;7.15;3.10;;;18.70;62.80;;;;;;5036015;28;20175;-86
2021/06/24 08:40:33;;;;;;;10.45;3.30;;;18.80;63.20;;;;;;5036052;28;20183;-87
2021/06/24 08:42:59;;;;;;;7.55;3.58;;;18.70;63.60;;;;;;5053957;28;20187;-87
2021/06/24 08:45:24;;;;;;;8.07;3.30;;;18.80;62.80;;;;;;5054154;28;20204;-87
2021/06/24 08:47:51;;;;;;;5.60;3.40;;;18.80;61.30;;;;;;5053165;28;20172;-87
2021/06/24 08:50:18;;;;;;;6.28;3.47;;;18.90;60.60;;;;;;5036333;28;20183;-87
2021/06/24 08:52:48;;;;;;;7.68;3.30;;;19.00;60.70;;;;;;5036345;28;20258;-88
2021/06/24 08:55:16;;;;;;;4.00;2.83;;;19.00;62.00;;;;;;5036448;28;20163;-87
2021/06/24 08:57:41;;;;;;;8.18;2.88;;;19.20;60.70;;;;;;5053869;28;20179;-85
2021/06/24 09:00:09;;;;;;;7.40;3.35;;;19.20;61.80;;;;;;5053815;28;20175;-86
2021/06/24 09:02:39;;;;;;;6.68;3.22;;;19.30;60.70;;;;;;5035600;28;20636;-86
2021/06/24 09:05:06;;;;;;;4.95;3.20;;;19.00;62.00;;;;;;5053404;28;20168;-85
2021/06/24 09:07:32;;;;;;;8.90;3.03;;;19.40;62.20;;;;;;5052402;28;20632;-85
2021/06/24 09:09:58;;;;;;;4.80;2.90;;;19.60;58.00;;;;;;5052229;28;20555;-86
2021/06/24 09:12:25;;;;;;;4.10;2.80;;;19.60;58.30;;;;;;5051975;28;20204;-86
2021/06/24 09:14:59;;;;;;;7.18;2.85;;;19.60;57.90;;;;;;5053461;28;20164;-85
2021/06/24 09:17:39;;;;;;;7.32;2.85;;;19.30;59.00;;;;;;5035494;28;20175;-85
2021/06/24 09:20:19;;;;;;;5.15;3.00;;;19.20;58.40;;;;;;5035594;28;20172;-86
2021/06/24 09:23:08;;;;;;;6.30;2.47;;;19.20;58.50;;;;;;5051984;28;20200;-85
2021/06/24 09:25:35;;;;;;;7.22;2.45;;;19.50;60.30;;;;;;5053209;28;20176;-85
2021/06/24 09:28:00;;;;;;;5.82;2.63;;;19.70;59.90;;;;;;5035406;28;20175;-84
2021/06/24 09:30:31;;;;;;;3.85;2.95;;;19.90;58.00;;;;;;5053189;28;20251;-86
2021/06/24 09:33:16;;;;;;;4.28;2.85;;;20.00;58.20;;;;;;5034948;28;20223;-85
2021/06/24 09:35:53;;;;;;;4.78;2.30;;;19.70;59.00;;;;;;5051908;28;20176;-85
2021/06/24 09:38:18;;;;;;;5.38;2.90;;;19.80;60.80;;;;;;5053421;28;20168;-84
2021/06/24 09:40:57;;;;;;;7.18;3.10;;;19.90;56.70;;;;;;5052067;28;20628;-85
2021/06/24 09:43:22;;;;;;;5.72;2.63;;;20.00;59.20;;;;;;5043138;23;20205;-89
2021/06/24 09:46:14;;;;;;;3.63;2.22;;;20.20;60.10;;;;;;4967106;28;20164;-87
2021/06/24 09:48:45;;;;;;;5.25;2.95;;;20.40;58.30;;;;;;4952156;28;20160;-87
2021/06/24 09:51:22;;;;;;;5.35;2.50;;;19.90;57.50;;;;;;4967141;28;20211;-88
2021/06/24 09:53:58;;;;;;;3.88;2.50;;;19.90;58.20;;;;;;4952475;28;20203;-88
2021/06/24 09:56:26;;;;;;;4.90;2.55;;;19.90;59.00;;;;;;4952196;28;20155;-87
2021/06/24 09:58:54;;;;;;;6.15;2.60;;;19.80;58.00;;;;;;4951565;29;20666;-87
2021/06/24 10:01:31;;;;;;;5.70;2.50;;;19.30;59.50;;;;;;4952165;28;20183;-87
2021/06/24 10:03:59;;;;;;;6.55;2.75;;;19.70;60.20;;;;;;4950917;29;20282;-88
2021/06/24 10:06:25;;;;;;;3.90;2.08;;;19.80;58.70;;;;;;4950855;29;20182;-87
2021/06/24 10:08:55;;;;;;;6.78;2.03;;;19.90;59.30;;;;;;4952046;28;20509;-87
2021/06/24 10:11:22;;;;;;;4.38;2.03;;;19.80;58.90;;;;;;4951908;28;20179;-87
2021/06/24 10:13:47;;;;;;;8.27;2.22;;;19.80;59.70;;;;;;4954068;29;20203;-87
2021/06/24 10:16:16;;;;;;;5.22;1.98;;;20.00;61.10;;;;;;4954211;28;20183;-87
2021/06/24 10:18:46;;;;;;;7.40;2.80;;;20.30;59.80;;;;;;4955279;28;20291;-87
2021/06/24 10:21:14;;;;;;;5.97;2.30;;;20.20;60.20;;;;;;4954280;29;20171;-87
2021/06/24 10:23:50;;;;;;;3.58;2.25;;;20.50;59.80;;;;;;4953999;29;20234;-87
2021/06/24 10:26:17;;;;;;;7.47;2.67;;;20.40;59.20;;;;;;4953940;29;20167;-87
2021/06/24 10:28:43;;;;;;;3.85;2.63;;;20.00;59.50;;;;;;4955143;28;20524;-87
2021/06/24 10:31:38;;;;;;;6.97;2.55;;;20.20;59.70;;;;;;4953825;29;20193;-87
2021/06/24 10:34:04;;;;;;;5.35;2.55;;;20.40;59.90;;;;;;4955358;28;20725;-87
2021/06/24 10:36:32;;;;;;;6.03;3.15;;;20.50;56.00;;;;;;4954957;28;20172;-87
2021/06/24 10:38:59;;;;;;;8.23;2.15;;;20.60;58.10;;;;;;4953813;29;20584;-87
2021/06/24 10:41:25;;;;;;;2.97;2.03;;;20.50;58.40;;;;;;4953726;29;20183;-87
2021/06/24 10:43:52;;;;;;;3.60;1.88;;;20.20;55.20;;;;;;4953527;29;20223;-87
2021/06/24 10:46:24;;;;;;;4.07;2.13;;;19.90;58.10;;;;;;4954855;28;20171;-87
2021/06/24 10:48:50;;;;;;;4.82;2.58;;;20.10;59.80;;;;;;4953659;29;20160;-87
2021/06/24 10:51:16;;;;;;;2.40;1.73;;;20.20;59.10;;;;;;4953594;29;20228;-87
2021/06/24 10:53:53;;;;;;;5.00;2.47;;;20.50;59.50;;;;;;4953358;28;20215;-87
2021/06/24 10:56:23;;;;;;;7.22;2.70;;;20.60;58.30;;;;;;4953536;29;20171;-87
2021/06/24 10:58:49;;;;;;;6.53;2.83;;;20.20;57.40;;;;;;4954957;29;20175;-87
2021/06/24 11:01:41;;;;;;;7.00;3.05;;;19.80;58.60;;;;;;4953452;29;20176;-87
2021/06/24 11:04:26;;;;;;;5.70;2.70;;;19.70;60.50;;;;;;4954524;28;20746;-87
2021/06/24 11:06:53;;;;;;;6.88;2.63;;;19.90;60.20;;;;;;4953546;29;20182;-87
2021/06/24 11:09:20;;;;;;;8.63;2.65;;;20.30;61.20;;;;;;4953585;29;20321;-87
2021/06/24 11:11:46;;;;;;;6.85;3.00;;;20.70;61.60;;;;;;4953290;29;20669;-87
2021/06/24 11:14:16;;;;;;;5.97;2.78;;;20.70;60.00;;;;;;4953340;28;20202;-87
2021/06/24 11:16:43;;;;;;;5.22;2.50;;;20.70;59.90;;;;;;4954449;28;20151;-87
2021/06/24 11:19:14;;;;;;;4.95;3.00;;;20.70;61.00;;;;;;4954684;28;20175;-87
2021/06/24 11:21:39;;;;;;;6.90;2.83;;;20.50;62.30;;;;;;4953219;29;20183;-87
2021/06/24 11:24:05;;;;;;;8.90;3.30;;;20.70;62.90;;;;;;4952572;29;20249;-87
2021/06/24 11:26:31;;;;;;;5.20;2.80;;;21.20;61.00;;;;;;4952715;28;20651;-87
2021/06/24 11:29:01;;;;;;;4.32;2.50;;;21.10;60.60;;;;;;4953108;28;20180;-87
2021/06/24 11:31:37;;;;;;;6.85;3.17;;;21.20;61.20;;;;;;4954180;28;20206;-87
2021/06/24 11:36:29;;;;;;;7.47;3.17;;;20.60;62.50;;;;;;4954164;28;20267;-87
2021/06/24 11:38:55;;;;;;;5.18;2.92;;;20.80;61.30;;;;;;4954112;29;20690;-87
2021/06/24 11:41:22;;;;;;;6.18;3.10;;;20.70;61.50;;;;;;4952818;28;20186;-87
2021/06/24 11:43:59;;;;;;;8.25;3.10;;;20.50;61.30;;;;;;4952685;29;20211;-87
2021/06/24 11:46:30;;;;;;;6.10;2.95;;;20.60;62.00;;;;;;4952764;29;20183;-87
2021/06/24 12:05:15;;;;;;;6.88;3.40;;;20.90;59.10;;;;;;4953937;29;20203;-88
2021/06/24 12:07:41;;;;;;;6.88;2.63;;;20.70;59.50;;;;;;4953674;29;20172;-87
2021/06/24 12:10:10;;;;;;;10.43;3.17;;;20.70;60.60;;;;;;4953610;29;20171;-87
2021/06/24 12:12:40;;;;;;;7.28;3.53;;;20.30;62.20;;;;;;4952362;29;20211;-86
2021/06/24 12:15:10;;;;;;;7.00;4.18;;;19.80;63.10;;;;;;4952265;29;20195;-87
2021/06/24 12:17:37;;;;;;;4.03;2.92;;;19.80;64.00;;;;;;4952213;29;20198;-86
2021/06/24 12:20:09;;;;;;;5.43;2.95;;;19.80;64.90;;;;;;4952898;29;20186;-87
2021/06/24 12:22:36;;;;;;;8.00;3.17;;;20.00;65.10;;;;;;4953707;28;20241;-86
2021/06/24 12:25:05;;;;;;;5.40;3.35;;;19.80;64.40;;;;;;4952420;29;20207;-87
2021/06/24 12:27:34;;;;;;;11.30;3.90;;;19.80;64.00;;;;;;4952094;28;20615;-87
2021/06/24 12:30:12;;;;;;;9.90;3.67;;;19.70;64.90;;;;;;4952116;29;20202;-87
2021/06/24 12:32:44;;;;;;;8.93;2.95;;;19.90;63.50;;;;;;4952498;28;20207;-87
2021/06/24 12:35:10;;;;;;;5.38;3.10;;;20.00;63.00;;;;;;4951952;28;20710;-86
2021/06/24 12:37:44;;;;;;;7.78;3.75;;;19.80;62.60;;;;;;4951792;29;20175;-86
2021/06/24 12:40:15;;;;;;;6.38;3.50;;;19.70;64.00;;;;;;4951996;29;20164;-86
2021/06/24 12:42:54;;;;;;;9.13;3.35;;;20.00;62.50;;;;;;4953219;28;20732;-86
2021/06/24 12:45:22;;;;;;;8.32;3.17;;;20.00;62.50;;;;;;4952990;28;20732;-87
2021/06/24 12:47:49;;;;;;;5.53;3.30;;;19.70;62.80;;;;;;4951882;29;20187;-86
2021/06/24 12:50:23;;;;;;;5.70;3.08;;;19.50;62.90;;;;;;4951773;28;20180;-86
2021/06/24 12:52:50;;;;;;;7.85;2.72;;;19.60;62.40;;;;;;4951778;29;20562;-87
2021/06/24 12:55:38;;;;;;;5.53;2.72;;;19.70;62.90;;;;;;4952866;28;20199;-87
2021/06/24 12:58:31;;;;;;;8.30;2.92;;;19.90;63.60;;;;;;4952901;29;20171;-87
2021/06/24 13:01:19;;;;;;;5.10;2.95;;;19.70;62.90;;;;;;4949633;28;20196;-87
2021/06/24 13:03:51;;;;;;;7.28;2.80;;;19.80;63.80;;;;;;4952551;28;20207;-87
2021/06/24 13:06:19;;;;;;;5.40;2.80;;;20.00;62.70;;;;;;4951891;28;20639;-87